createdAt,value
2023-01-26T00:01:26.838Z,101643.00
2023-01-26T00:04:00.299Z,101659.00
2023-01-26T00:06:33.162Z,101633.00
2023-01-26T00:09:06.080Z,101644.00
2023-01-26T00:11:39.012Z,101641.00
2023-01-26T00:14:11.936Z,101629.00
2023-01-26T00:16:47.665Z,101628.00
2023-01-26T00:19:20.668Z,101633.00
2023-01-26T00:21:53.290Z,101620.00
2023-01-26T00:24:26.200Z,101616.00
2023-01-26T00:26:59.112Z,101598.00
2023-01-26T00:29:32.878Z,101616.00
2023-01-26T00:32:06.182Z,101617.00
2023-01-26T00:34:39.060Z,101601.00
2023-01-26T00:37:11.887Z,101615.00
2023-01-26T00:39:48.916Z,101615.00
2023-01-26T00:42:22.665Z,101622.00
2023-01-26T00:44:55.688Z,101614.00
2023-01-26T00:47:28.773Z,101628.00
2023-01-26T00:50:01.704Z,101613.00
2023-01-26T00:52:34.625Z,101608.00
2023-01-26T00:55:07.799Z,101607.00
2023-01-26T00:57:41.137Z,101617.00
2023-01-26T01:00:18.945Z,101616.00
2023-01-26T01:02:51.941Z,101628.00
2023-01-26T01:05:24.741Z,101612.00
2023-01-26T01:07:59.706Z,101629.00
2023-01-26T01:10:32.929Z,101630.00
2023-01-26T01:13:05.723Z,101619.00
2023-01-26T01:15:38.560Z,101619.00
2023-01-26T01:18:11.413Z,101613.00
2023-01-26T01:20:45.416Z,101613.00
2023-01-26T01:23:18.428Z,101597.00
2023-01-26T01:25:51.440Z,101624.00
2023-01-26T01:28:24.362Z,101622.00
2023-01-26T01:30:57.818Z,101618.00
2023-01-26T01:33:31.737Z,101618.00
2023-01-26T01:36:06.923Z,101614.00
2023-01-26T01:38:59.145Z,101609.00
2023-01-26T01:41:32.414Z,101600.00
2023-01-26T01:44:28.186Z,101592.00
2023-01-26T01:47:12.636Z,101602.00
2023-01-26T01:49:50.436Z,101599.00
2023-01-26T01:52:28.214Z,101598.00
2023-01-26T01:55:11.900Z,101585.00
2023-01-26T01:57:50.056Z,101618.00
2023-01-26T02:00:27.713Z,101580.00
2023-01-26T02:03:15.830Z,101603.00
2023-01-26T02:05:59.403Z,101590.00
2023-01-26T02:08:36.991Z,101579.00
2023-01-26T02:11:11.671Z,101581.00
2023-01-26T02:13:45.975Z,101592.00
2023-01-26T02:16:18.918Z,101585.00
2023-01-26T02:18:54.402Z,101584.00
2023-01-26T02:21:27.994Z,101579.00
2023-01-26T02:24:17.894Z,101581.00
2023-01-26T02:26:50.986Z,101576.00
2023-01-26T02:29:24.288Z,101566.00
2023-01-26T02:31:57.586Z,101581.00
2023-01-26T02:34:30.983Z,101577.00
2023-01-26T02:37:04.769Z,101569.00
2023-01-26T02:40:00.947Z,101542.00
2023-01-26T02:42:47.329Z,101548.00
2023-01-26T02:45:20.851Z,101543.00
2023-01-26T02:47:53.812Z,101539.00
2023-01-26T02:50:26.741Z,101528.00
2023-01-26T02:52:59.569Z,101526.00
2023-01-26T02:55:32.909Z,101520.00
2023-01-26T02:58:07.995Z,101528.00
2023-01-26T03:00:42.541Z,101511.00
2023-01-26T03:03:17.297Z,101494.00
2023-01-26T03:05:50.508Z,101489.00
2023-01-26T03:08:23.264Z,101490.00
2023-01-26T03:10:56.078Z,101485.00
2023-01-26T03:13:28.947Z,101469.00
2023-01-26T03:16:03.225Z,101472.00
2023-01-26T03:18:54.472Z,101460.00
2023-01-26T03:21:44.906Z,101469.00
2023-01-26T03:24:35.466Z,101455.00
2023-01-26T03:27:27.310Z,101456.00
2023-01-26T03:30:01.187Z,101451.00
2023-01-26T03:32:34.680Z,101452.00
2023-01-26T03:35:08.033Z,101454.00
2023-01-26T03:37:41.948Z,101440.00
2023-01-26T03:40:33.547Z,101441.00
2023-01-26T03:43:27.337Z,101435.00
2023-01-26T03:46:18.237Z,101446.00
2023-01-26T03:49:08.538Z,101444.00
2023-01-26T03:51:58.606Z,101450.00
2023-01-26T03:54:48.677Z,101451.00
2023-01-26T03:57:23.999Z,101459.00
2023-01-26T03:59:56.905Z,101449.00
2023-01-26T04:02:47.011Z,101445.00
2023-01-26T04:05:37.182Z,101424.00
2023-01-26T04:08:27.093Z,101422.00
2023-01-26T04:10:59.936Z,101423.00
2023-01-26T04:13:50.046Z,101420.00
2023-01-26T04:16:40.140Z,101413.00
2023-01-26T04:19:30.535Z,101413.00
2023-01-26T04:22:04.305Z,101401.00
2023-01-26T04:24:41.202Z,101403.00
2023-01-26T04:27:14.228Z,101401.00
2023-01-26T04:29:47.183Z,101395.00
2023-01-26T04:32:20.121Z,101392.00
2023-01-26T04:34:53.048Z,101395.00
2023-01-26T04:37:26.288Z,101391.00
2023-01-26T04:39:59.199Z,101393.00
2023-01-26T04:42:32.283Z,101387.00
2023-01-26T04:45:05.208Z,101393.00
2023-01-26T04:47:38.542Z,101390.00
2023-01-26T04:50:12.670Z,101388.00
2023-01-26T04:52:45.560Z,101387.00
2023-01-26T04:55:18.393Z,101393.00
2023-01-26T04:57:51.258Z,101393.00
2023-01-26T05:00:24.809Z,101392.00
2023-01-26T05:02:57.705Z,101391.00
2023-01-26T05:05:30.754Z,101382.00
2023-01-26T05:08:03.627Z,101402.00
2023-01-26T05:10:36.559Z,101412.00
2023-01-26T05:13:09.411Z,101403.00
2023-01-26T05:15:42.595Z,101396.00
2023-01-26T05:18:16.488Z,101395.00
2023-01-26T05:20:49.489Z,101376.00
2023-01-26T05:23:22.409Z,101383.00
2023-01-26T05:25:55.463Z,101381.00
2023-01-26T05:28:28.276Z,101369.00
2023-01-26T05:31:01.144Z,101366.00
2023-01-26T05:33:34.150Z,101374.00
2023-01-26T05:36:09.409Z,101374.00
2023-01-26T05:38:42.282Z,101378.00
2023-01-26T05:41:15.066Z,101388.00
2023-01-26T05:43:48.355Z,101379.00
2023-01-26T05:49:13.409Z,101374.00
2023-01-26T05:51:46.261Z,101367.00
2023-01-26T05:54:19.285Z,101367.00
2023-01-26T05:56:52.233Z,101364.00
2023-01-26T05:59:25.076Z,101364.00
2023-01-26T06:01:59.074Z,101356.00
2023-01-26T06:04:32.447Z,101360.00
2023-01-26T06:07:05.329Z,101359.00
2023-01-26T06:09:39.361Z,101373.00
2023-01-26T06:12:16.488Z,101371.00
2023-01-26T06:14:49.390Z,101379.00
2023-01-26T06:17:24.413Z,101365.00
2023-01-26T06:20:03.721Z,101366.00
2023-01-26T06:25:31.916Z,101378.00
2023-01-26T06:28:05.077Z,101372.00
2023-01-26T06:30:38.115Z,101370.00
2023-01-26T06:33:11.083Z,101374.00
2023-01-26T06:35:44.140Z,101367.00
2023-01-26T06:38:17.197Z,101361.00
2023-01-26T06:40:50.069Z,101375.00
2023-01-26T06:43:23.572Z,101365.00
2023-01-26T06:45:56.615Z,101366.00
2023-01-26T06:48:31.294Z,101348.00
2023-01-26T06:51:06.266Z,101335.00
2023-01-26T06:53:43.579Z,101340.00
2023-01-26T06:56:16.530Z,101358.00
2023-01-26T06:58:49.390Z,101336.00
2023-01-26T07:01:23.718Z,101344.00
2023-01-26T07:03:57.385Z,101345.00
2023-01-26T07:06:30.171Z,101356.00
2023-01-26T07:09:03.028Z,101349.00
2023-01-26T07:11:36.161Z,101357.00
2023-01-26T07:14:09.113Z,101358.00
2023-01-26T07:16:41.976Z,101363.00
2023-01-26T07:19:14.839Z,101376.00
2023-01-26T07:21:48.079Z,101363.00
2023-01-26T07:24:22.262Z,101364.00
2023-01-26T07:26:55.285Z,101369.00
2023-01-26T07:29:28.333Z,101360.00
2023-01-26T07:32:01.397Z,101361.00
2023-01-26T07:34:34.391Z,101376.00
2023-01-26T07:37:07.704Z,101385.00
2023-01-26T07:39:40.549Z,101382.00
2023-01-26T07:42:15.196Z,101390.00
2023-01-26T07:44:49.025Z,101396.00
2023-01-26T07:47:21.972Z,101399.00
2023-01-26T07:49:54.922Z,101384.00
2023-01-26T07:52:27.958Z,101384.00
2023-01-26T07:55:00.884Z,101408.00
2023-01-26T07:57:33.976Z,101402.00
2023-01-26T08:00:07.518Z,101401.00
2023-01-26T08:02:40.288Z,101400.00
2023-01-26T08:05:13.931Z,101402.00
2023-01-26T08:07:46.842Z,101388.00
2023-01-26T08:10:20.061Z,101404.00
2023-01-26T08:12:53.324Z,101407.00
2023-01-26T08:15:26.212Z,101413.00
2023-01-26T08:17:59.254Z,101407.00
2023-01-26T08:20:32.207Z,101407.00
2023-01-26T08:23:05.233Z,101406.00
2023-01-26T08:25:38.475Z,101399.00
2023-01-26T08:28:11.389Z,101401.00
2023-01-26T08:30:44.655Z,101405.00
2023-01-26T08:33:17.491Z,101415.00
2023-01-26T08:35:50.303Z,101408.00
2023-01-26T08:38:23.208Z,101411.00
2023-01-26T08:41:02.366Z,101431.00
2023-01-26T08:43:36.425Z,101404.00
2023-01-26T08:46:10.244Z,101414.00
2023-01-26T08:48:45.938Z,101414.00
2023-01-26T08:51:19.012Z,101419.00
2023-01-26T08:53:54.526Z,101407.00
2023-01-26T08:56:26.531Z,101407.00
2023-01-26T08:59:02.177Z,101408.00
2023-01-26T09:01:35.018Z,101417.00
2023-01-26T09:04:08.066Z,101420.00
2023-01-26T09:06:43.992Z,101429.00
2023-01-26T09:09:20.034Z,101406.00
2023-01-26T09:11:52.921Z,101398.00
2023-01-26T09:14:25.812Z,101410.00
2023-01-26T09:16:58.591Z,101394.00
2023-01-26T09:19:31.371Z,101380.00
2023-01-26T09:22:04.145Z,101395.00
2023-01-26T09:24:37.044Z,101384.00
2023-01-26T09:27:10.658Z,101386.00
2023-01-26T09:29:43.701Z,101382.00
2023-01-26T09:32:16.364Z,101366.00
2023-01-26T09:34:49.007Z,101381.00
2023-01-26T09:37:21.998Z,101386.00
2023-01-26T09:39:54.868Z,101368.00
2023-01-26T09:42:35.378Z,101386.00
2023-01-26T09:45:19.275Z,101372.00
2023-01-26T09:48:00.538Z,101387.00
2023-01-26T09:50:35.397Z,101395.00
2023-01-26T09:53:22.876Z,101397.00
2023-01-26T09:55:57.451Z,101395.00
2023-01-26T09:58:41.148Z,101380.00
2023-01-26T10:01:21.741Z,101386.00
2023-01-26T10:04:15.433Z,101372.00
2023-01-26T10:06:49.554Z,101368.00
2023-01-26T10:09:24.619Z,101371.00
2023-01-26T10:12:01.819Z,101367.00
2023-01-26T10:14:48.075Z,101356.00
2023-01-26T10:17:25.540Z,101352.00
2023-01-26T10:20:06.312Z,101343.00
2023-01-26T10:22:49.775Z,101344.00
2023-01-26T10:25:25.378Z,101342.00
2023-01-26T10:27:58.753Z,101332.00
2023-01-26T10:30:31.717Z,101323.00
2023-01-26T10:33:04.650Z,101336.00
2023-01-26T10:35:37.527Z,101332.00
2023-01-26T10:38:29.026Z,101338.00
2023-01-26T10:41:06.211Z,101323.00
2023-01-26T10:43:44.022Z,101330.00
2023-01-26T10:46:43.097Z,101322.00
2023-01-26T10:49:19.194Z,101331.00
2023-01-26T10:52:10.253Z,101329.00
2023-01-26T10:54:44.244Z,101323.00
2023-01-26T10:57:27.904Z,101328.00
2023-01-26T11:00:09.633Z,101321.00
2023-01-26T11:02:43.494Z,101318.00
2023-01-26T11:05:18.711Z,101321.00
2023-01-26T11:07:53.492Z,101328.00
2023-01-26T11:10:40.433Z,101321.00
2023-01-26T11:13:19.060Z,101328.00
2023-01-26T11:15:54.911Z,101329.00
2023-01-26T11:18:42.500Z,101313.00
2023-01-26T11:21:34.286Z,101309.00
2023-01-26T11:24:21.924Z,101309.00
2023-01-26T11:27:02.673Z,101317.00
2023-01-26T11:29:54.017Z,101308.00
2023-01-26T11:32:43.375Z,101300.00
2023-01-26T11:35:34.882Z,101294.00
2023-01-26T11:38:22.203Z,101281.00
2023-01-26T11:41:11.977Z,101283.00
2023-01-26T11:44:03.829Z,101273.00
2023-01-26T11:46:42.153Z,101262.00
2023-01-26T11:49:40.179Z,101243.00
2023-01-26T11:52:36.567Z,101259.00
2023-01-26T11:55:32.086Z,101252.00
2023-01-26T11:58:13.059Z,101232.00
2023-01-26T12:00:53.836Z,101239.00
2023-01-26T12:03:49.456Z,101235.00
2023-01-26T12:06:29.851Z,101227.00
2023-01-26T12:09:11.838Z,101231.00
2023-01-26T12:12:03.242Z,101226.00
2023-01-26T12:14:44.177Z,101215.00
2023-01-26T12:17:19.172Z,101209.00
2023-01-26T12:20:09.677Z,101201.00
2023-01-26T12:22:50.538Z,101207.00
2023-01-26T12:25:28.976Z,101193.00
2023-01-26T12:28:22.293Z,101195.00
2023-01-26T12:30:57.163Z,101190.00
2023-01-26T12:33:30.299Z,101190.00
2023-01-26T12:36:05.013Z,101173.00
2023-01-26T12:38:45.700Z,101176.00
2023-01-26T12:41:53.390Z,101168.00
2023-01-26T12:44:34.404Z,101165.00
2023-01-26T12:47:09.148Z,101166.00
2023-01-26T12:49:54.223Z,101159.00
2023-01-26T12:52:32.022Z,101158.00
2023-01-26T12:55:12.743Z,101156.00
2023-01-26T12:57:50.543Z,101144.00
2023-01-26T13:00:31.799Z,101134.00
2023-01-26T13:03:06.559Z,101133.00
2023-01-26T13:05:41.313Z,101140.00
2023-01-26T13:08:37.787Z,101118.00
2023-01-26T13:11:12.745Z,101120.00
2023-01-26T13:13:59.463Z,101109.00
2023-01-26T13:16:34.801Z,101091.00
2023-01-26T13:19:08.772Z,101093.00
2023-01-26T13:21:44.851Z,101100.00
2023-01-26T13:24:26.285Z,101088.00
2023-01-26T13:27:03.515Z,101091.00
2023-01-26T13:29:38.151Z,101099.00
2023-01-26T13:32:23.598Z,101085.00
2023-01-26T13:35:05.819Z,101069.00
2023-01-26T13:37:55.619Z,101068.00
2023-01-26T13:40:37.807Z,101062.00
2023-01-26T13:43:27.587Z,101052.00
2023-01-26T13:46:03.288Z,101054.00
2023-01-26T13:48:47.554Z,101068.00
2023-01-26T13:51:28.148Z,101058.00
2023-01-26T13:54:09.975Z,101058.00
2023-01-26T13:56:46.703Z,101049.00
2023-01-26T13:59:22.644Z,101060.00
2023-01-26T14:01:57.422Z,101045.00
2023-01-26T14:04:32.314Z,101029.00
2023-01-26T14:07:09.900Z,101030.00
2023-01-26T14:09:50.442Z,101023.00
2023-01-26T14:12:28.594Z,101045.00
2023-01-26T14:15:03.474Z,101037.00
2023-01-26T14:17:41.709Z,101029.00
2023-01-26T14:20:31.383Z,101024.00
2023-01-26T14:23:18.401Z,101029.00
2023-01-26T14:26:08.726Z,101019.00
2023-01-26T14:28:44.066Z,101021.00
2023-01-26T14:31:24.584Z,101021.00
2023-01-26T14:34:02.086Z,101019.00
2023-01-26T14:36:36.632Z,101026.00
2023-01-26T14:39:25.726Z,101009.00
2023-01-26T14:41:59.128Z,101012.00
2023-01-26T14:44:32.203Z,101020.00
2023-01-26T14:47:24.495Z,101025.00
2023-01-26T14:50:05.070Z,101024.00
2023-01-26T14:52:43.413Z,101018.00
2023-01-26T14:55:33.575Z,101017.00
2023-01-26T14:58:08.235Z,101012.00
2023-01-26T15:00:42.080Z,100997.00
2023-01-26T15:03:25.748Z,101000.00
2023-01-26T15:06:20.621Z,101004.00
2023-01-26T15:09:01.823Z,100991.00
2023-01-26T15:11:56.646Z,100991.00
2023-01-26T15:14:40.756Z,100987.00
2023-01-26T15:17:15.598Z,100967.00
2023-01-26T15:19:48.624Z,100981.00
2023-01-26T15:22:25.848Z,100980.00
2023-01-26T15:25:10.091Z,100976.00
2023-01-26T15:27:42.991Z,100963.00
2023-01-26T15:30:18.207Z,100980.00
2023-01-26T15:32:51.150Z,100965.00
2023-01-26T15:35:26.279Z,100973.00
2023-01-26T15:38:15.999Z,100972.00
2023-01-26T15:40:48.889Z,100960.00
2023-01-26T15:43:23.215Z,100960.00
2023-01-26T15:45:57.782Z,100960.00
2023-01-26T15:48:31.913Z,100966.00
2023-01-26T15:51:05.017Z,100952.00
2023-01-26T15:53:38.803Z,100951.00
2023-01-26T15:56:15.899Z,100954.00
2023-01-26T15:58:48.621Z,100953.00
2023-01-26T16:01:23.382Z,100935.00
2023-01-26T16:03:56.300Z,100949.00
2023-01-26T16:06:31.391Z,100937.00
2023-01-26T16:09:04.280Z,100940.00
2023-01-26T16:11:39.011Z,100963.00
2023-01-26T16:14:13.142Z,100949.00
2023-01-26T16:16:46.261Z,100954.00
2023-01-26T16:19:33.708Z,100948.00
2023-01-26T16:21:54.660Z,100949.00
2023-01-26T16:24:27.652Z,100945.00
2023-01-26T16:27:00.585Z,100951.00
2023-01-26T16:29:33.507Z,100953.00
2023-01-26T16:32:07.593Z,100952.00
2023-01-26T16:34:40.658Z,100958.00
2023-01-26T16:37:13.429Z,100966.00
2023-01-26T16:39:46.437Z,100981.00
2023-01-26T16:42:21.193Z,100968.00
2023-01-26T16:44:54.228Z,100937.00
2023-01-26T16:47:27.290Z,100937.00
2023-01-26T16:50:00.263Z,100928.00
2023-01-26T16:52:33.083Z,100940.00
2023-01-26T16:55:06.181Z,100945.00
2023-01-26T16:57:39.305Z,100955.00
2023-01-26T17:00:14.515Z,100947.00
2023-01-26T17:02:48.538Z,100928.00
2023-01-26T17:05:23.951Z,100936.00
2023-01-26T17:07:57.973Z,100943.00
2023-01-26T17:10:31.040Z,100943.00
2023-01-26T17:13:04.095Z,100941.00
2023-01-26T17:15:36.961Z,100941.00
2023-01-26T17:18:09.974Z,100927.00
2023-01-26T17:20:43.807Z,100943.00
2023-01-26T17:23:16.792Z,100942.00
2023-01-26T17:25:50.680Z,100935.00
2023-01-26T17:28:23.566Z,100938.00
2023-01-26T17:30:57.351Z,100936.00
2023-01-26T17:33:31.832Z,100951.00
2023-01-26T17:36:09.031Z,100940.00
2023-01-26T17:38:42.980Z,100951.00
2023-01-26T17:41:15.616Z,100954.00
2023-01-26T17:43:49.837Z,100957.00
2023-01-26T17:46:24.492Z,100950.00
2023-01-26T17:48:58.504Z,100942.00
2023-01-26T17:51:31.387Z,100935.00
2023-01-26T17:54:04.527Z,100945.00
2023-01-26T17:56:37.712Z,100945.00
2023-01-26T17:59:10.624Z,100938.00
2023-01-26T18:01:43.400Z,100938.00
2023-01-26T18:04:16.363Z,100927.00
2023-01-26T18:06:49.489Z,100942.00
2023-01-26T18:09:22.810Z,100930.00
2023-01-26T18:11:55.672Z,100925.00
2023-01-26T18:14:28.800Z,100927.00
2023-01-26T18:17:01.753Z,100923.00
2023-01-26T18:19:34.769Z,100924.00
2023-01-26T18:22:07.634Z,100926.00
2023-01-26T18:24:40.619Z,100921.00
2023-01-26T18:27:13.714Z,100930.00
2023-01-26T18:29:46.670Z,100925.00
2023-01-26T18:32:19.442Z,100915.00
2023-01-26T18:34:52.377Z,100931.00
2023-01-26T18:37:25.316Z,100928.00
2023-01-26T18:39:58.230Z,100925.00
2023-01-26T18:42:31.258Z,100913.00
2023-01-26T18:45:04.168Z,100920.00
2023-01-26T18:47:37.281Z,100908.00
2023-01-26T18:50:11.100Z,100913.00
2023-01-26T18:52:44.007Z,100920.00
2023-01-26T18:55:17.532Z,100904.00
2023-01-26T18:57:51.318Z,100900.00
2023-01-26T19:00:25.016Z,100901.00
2023-01-26T19:02:58.078Z,100897.00
2023-01-26T19:05:31.373Z,100908.00
2023-01-26T19:08:05.432Z,100904.00
2023-01-26T19:10:40.552Z,100905.00
2023-01-26T19:13:13.532Z,100913.00
2023-01-26T19:15:50.230Z,100911.00
2023-01-26T19:18:22.798Z,100913.00
2023-01-26T19:21:05.976Z,100885.00
2023-01-26T19:23:39.812Z,100884.00
2023-01-26T19:26:14.155Z,100890.00
2023-01-26T19:28:48.911Z,100891.00
2023-01-26T19:31:22.024Z,100889.00
2023-01-26T19:34:00.497Z,100893.00
2023-01-26T19:36:35.268Z,100876.00
2023-01-26T19:39:08.683Z,100865.00
2023-01-26T19:41:41.295Z,100857.00
2023-01-26T19:44:14.590Z,100875.00
2023-01-26T19:46:48.136Z,100865.00
2023-01-26T19:49:21.956Z,100891.00
2023-01-26T19:51:55.689Z,100885.00
2023-01-26T19:54:28.578Z,100890.00
2023-01-26T19:57:01.712Z,100882.00
2023-01-26T19:59:35.177Z,100882.00
2023-01-26T20:02:08.807Z,100890.00
2023-01-26T20:04:42.171Z,100895.00
2023-01-26T20:07:15.180Z,100876.00
2023-01-26T20:09:49.918Z,100874.00
2023-01-26T20:12:22.275Z,100854.00
2023-01-26T20:14:55.465Z,100871.00
2023-01-26T20:17:28.507Z,100871.00
2023-01-26T20:20:01.534Z,100880.00
2023-01-26T20:22:35.915Z,100892.00
2023-01-26T20:25:09.486Z,100894.00
2023-01-26T20:27:42.862Z,100873.00
2023-01-26T20:30:17.216Z,100873.00
2023-01-26T20:32:50.111Z,100876.00
2023-01-26T20:35:23.236Z,100864.00
2023-01-26T20:37:56.030Z,100856.00
2023-01-26T20:40:29.893Z,100852.00
2023-01-26T20:43:02.758Z,100852.00
2023-01-26T20:45:42.281Z,100845.00
2023-01-26T20:48:20.326Z,100855.00
2023-01-26T20:50:54.633Z,100854.00
2023-01-26T20:53:27.466Z,100844.00
2023-01-26T20:56:03.301Z,100849.00
2023-01-26T20:58:36.630Z,100853.00
2023-01-26T21:01:11.534Z,100839.00
2023-01-26T21:03:44.909Z,100857.00
2023-01-26T21:06:20.852Z,100848.00
2023-01-26T21:08:55.610Z,100853.00
2023-01-26T21:11:30.174Z,100844.00
2023-01-26T21:14:04.392Z,100835.00
2023-01-26T21:16:37.881Z,100827.00
2023-01-26T21:19:10.894Z,100850.00
2023-01-26T21:21:43.730Z,100820.00
2023-01-26T21:24:16.701Z,100828.00
2023-01-26T21:26:49.842Z,100816.00
2023-01-26T21:29:22.680Z,100815.00
2023-01-26T21:31:55.566Z,100807.00
2023-01-26T21:34:28.447Z,100797.00
2023-01-26T21:37:01.373Z,100779.00
2023-01-26T21:39:34.223Z,100797.00
2023-01-26T21:42:07.325Z,100787.00
2023-01-26T21:44:41.391Z,100795.00
2023-01-26T21:47:18.637Z,100782.00
2023-01-26T21:49:55.803Z,100791.00
2023-01-26T21:52:46.679Z,100771.00
2023-01-26T21:55:19.591Z,100772.00
2023-01-26T21:58:10.301Z,100780.00
2023-01-26T22:00:44.456Z,100776.00
2023-01-26T22:03:17.591Z,100775.00
2023-01-26T22:05:59.457Z,100791.00
2023-01-26T22:08:32.920Z,100762.00
2023-01-26T22:11:08.198Z,100780.00
2023-01-26T22:13:40.125Z,100773.00
2023-01-26T22:16:19.925Z,100757.00
2023-01-26T22:18:53.789Z,100759.00
2023-01-26T22:21:26.813Z,100751.00
2023-01-26T22:23:59.931Z,100759.00
2023-01-26T22:26:32.903Z,100775.00
2023-01-26T22:29:08.438Z,100769.00
2023-01-26T22:31:40.375Z,100746.00
2023-01-26T22:34:14.221Z,100752.00
2023-01-26T22:36:47.230Z,100758.00
2023-01-26T22:39:27.804Z,100731.00
2023-01-26T22:42:00.056Z,100762.00
2023-01-26T22:44:34.520Z,100749.00
2023-01-26T22:47:07.126Z,100751.00
2023-01-26T22:49:40.078Z,100744.00
2023-01-26T22:52:13.088Z,100708.00
2023-01-26T22:54:45.979Z,100720.00
2023-01-26T22:57:19.362Z,100744.00
2023-01-26T22:59:52.545Z,100746.00
2023-01-26T23:02:25.584Z,100729.00
2023-01-26T23:04:58.651Z,100725.00
2023-01-26T23:07:31.608Z,100765.00
2023-01-26T23:10:04.658Z,100759.00
2023-01-26T23:12:37.701Z,100753.00
2023-01-26T23:15:11.894Z,100752.00
2023-01-26T23:17:45.170Z,100750.00
2023-01-26T23:20:18.411Z,100734.00
2023-01-26T23:22:54.999Z,100722.00
2023-01-26T23:25:45.433Z,100715.00
2023-01-26T23:28:23.278Z,100728.00
2023-01-26T23:30:57.424Z,100724.00
2023-01-26T23:33:33.825Z,100726.00
2023-01-26T23:36:07.536Z,100729.00
2023-01-26T23:38:40.651Z,100731.00
2023-01-26T23:41:13.943Z,100729.00
2023-01-26T23:43:46.971Z,100735.00
2023-01-26T23:46:19.841Z,100737.00
2023-01-26T23:48:52.798Z,100711.00
2023-01-26T23:51:32.259Z,100715.00
2023-01-26T23:54:05.217Z,100710.00
2023-01-26T23:56:38.254Z,100712.00
2023-01-26T23:59:11.807Z,100718.00
